Terminal Aerodrome Forecast
Issued by NWS

Home | Current Version | Previous Version | Text Only | Print | Product List | Glossary On
Versions: 1 2 3 4 5 6 7 8 9 10 11 12 13 14
948
FTUS42 TJSJ 270539
TAFNCM
TAF
TNCM 270539Z 2706/2806 10008KT P6SM VCSH FEW018 FEW020
     FM271400 13013KT P6SM FEW022 SCT035
     FM272300 10010KT P6SM VCSH SCT018 SCT020 SCT035=

USA.gov is the U.S. government's official web portal to all federal, state and local government web resources and services.